Tiempo atmosférico en la estación meteorológica de Salamanca Aeropuerto, Salamanca (790 m.)



Fecha
DESCASC
Temp. máxima en grados centígrados (hora)
DESCASC
Temp. mínima en grados centígrados (hora)
DESCASC
Temp. media en grados centígrados
DESCASC
Racha de viento máxima en m/sg (hora)
DESCASC
Velocidad máxima media en intervalos de 10 minutos(hora)
DESCASC
Precipitaciones diarias en mm
DESCASC
Precipitaciones de 00:00 a 06:00 en mm
DESCASC
Precipitaciones de 06:00 a 12:00 en mm
DESCASC
Precipitaciones de 12:00 a 18:00 en mm
DESCASC
Precipitaciones de 18:00 a 24:00 en mm
DESCASC
18-04-2019 14.9 (16:40) 5.3 (08:00) 10.1 10.83 (17:10) 8.33 (17:10) 1 0 0 0 1
17-04-2019 21.8 (16:10) 5.7 (07:50) 13.7 16.11 (18:30) 11.67 (20:20) 0.1 0 0 0 0.1
16-04-2019 20.8 (18:00) 0 (00:00) 10.4 8.33 (12:00) 5 (20:30) 0 0 0 0 0
15-04-2019 20.4 (12:10) 6.9 (00:00) 13.6 18.06 (13:40) 13.33 (16:50) 0.1 0 0 0 0.1
14-04-2019 20 (16:00) 9.4 (00:00) 14.7 7.22 (13:30) 4.17 (01:00) 0 0 0 0 0
13-04-2019 20.9 (18:20) 2.3 (00:00) 11.6 -- (--) -- (--) 0 0 0 0 0
12-04-2019 16.7 (18:40) -0.7 (-00:0) 8 9.17 (01:50) 3.89 (16:50) 0 0 0 0 0
11-04-2019 13.8 (19:30) -2 (-00:0) 5.9 6.67 (16:50) 4.72 (19:40) 0 0 0 0 0
10-04-2019 12.5 (15:20) 3.5 (00:00) 8 13.33 (15:40) 10.83 (15:40) 2.4 0 0 1.4 1
09-04-2019 12.5 (16:30) 2.9 (00:00) 7.7 15 (11:20) 10.83 (14:50) 2.4 0 2.1 0.2 0.1
08-04-2019 14.7 (16:20) 5 (00:00) 9.8 14.44 (18:20) 9.17 (18:20) 1.9 1.8 0 0.1 0
07-04-2019 10.3 (13:30) 2 (00:00) 6.2 11.39 (01:40) 8.33 (00:20) 1 0 0 0.6 0.4
06-04-2019 9.1 (18:50) 2.1 (00:00) 5.6 19.72 (14:20) 14.72 (14:40) 1.6 0 0.4 1.2 0
05-04-2019 9.8 (17:30) 1.3 (00:00) 5.6 18.06 (06:50) 10.28 (06:50) 2.3 0 1.3 0.1 0.9
04-04-2019 13.1 (16:30) -4.8 (-00:0) 4.2 13.33 (19:30) 7.78 (16:50) 0 0 0 0 0
03-04-2019 12.7 (18:20) 1.8 (23:59) 7.2 12.78 (18:40) 8.33 (18:40) 0 0 0 0 0
02-04-2019 18.4 (16:00) 5.3 (00:00) 11.8 12.78 (17:10) 8.33 (18:30) -- 0 -- 0 0
01-04-2019 18.7 (16:50) 0.5 (00:00) 9.6 8.89 (15:30) 6.11 (21:50) 0 0 0 0 0
31-03-2019 19.7 (17:10) -0.7 (-00:0) 9.5 9.17 (14:00) 5.83 (18:10) 0 0 0 0 0
30-03-2019 20.2 (14:30) -0.1 (00:00) 10.1 8.33 (13:20) 4.72 (17:40) 0 0 0 0 0
29-03-2019 19.9 (16:20) -1.4 (-00:0) 9.2 7.78 (19:40) 5.83 (19:50) 0 0 0 0 0
28-03-2019 19.4 (17:30) -0.3 (00:00) 9.5 7.22 (03:30) 4.72 (01:20) 0 0 0 0 0
27-03-2019 18.9 (17:10) -0.5 (-00:0) 9.2 11.67 (01:50) 8.33 (01:40) -- 0 0 -- 0
26-03-2019 20 (17:10) -2.5 (-00:0) 8.8 13.89 (20:30) 9.72 (20:40) 0 0 0 0 0
25-03-2019 18.2 (15:40) 1.4 (00:00) 9.8 13.33 (22:00) 8.61 (22:00) 0 0 0 0 0
24-03-2019 20.8 (16:50) 4.7 (00:00) 12.7 11.67 (13:10) 7.22 (23:50) 0 0 0 0 0
23-03-2019 20.9 (16:20) -0.9 (-00:0) 10 11.39 (13:50) 7.22 (15:40) 0 0 0 0 0
22-03-2019 17.5 (16:30) -3.4 (-00:0) 7 10.28 (13:10) 4.72 (18:40) 0 0 0 0 0
21-03-2019 15.2 (16:00) -3.6 (-00:0) 5.8 6.67 (17:00) 3.89 (17:10) 0 0 0 0 0

Gráficas

Temp. máximas Temp. mínimas Temp. medias Precipitaciones Rachas de viento máximas Velocidades máximas media en intervalos de 10 minutos

Datos horarios

Fecha y hora oficial Temperatura (ºC) Velocidad del viento (km/h) Dirección del viento Racha (km/h) Dirección de racha Precipitación (mm) Presión (hPa) Tendencia (hPa) Humedad (%)
2019-04-19 23:00:00 12.1 18 Este 28 Este 0 927.2 1.4 71
2019-04-19 22:00:00 11.8 6 Este 26 Este 0 926.7 1.6 78
2019-04-19 21:00:00 11.9 18 Nordeste 46 Este 0 926.1 1.4 77
2019-04-19 20:00:00 12.2 33 Este 48 Nordeste 0 925.8 0.9 74
2019-04-19 19:00:00 13.9 28 Este 42 Este 0 925.1 0.3 63
2019-04-19 18:00:00 15.4 31 Este 42 Este 0 924.7 -0.4 53
2019-04-19 17:00:00 14.8 26 Este 39 Este 0 924.9 -0.2 53
2019-04-19 16:00:00 15.9 24 Este 35 Este 0 924.8 -0.3 49
2019-04-19 15:00:00 14.8 23 Este 37 Este 0 925.1 0.5 55
2019-04-19 14:00:00 12.9 17 Este 35 Este 0 925.1 1.3 63
2019-04-19 13:00:00 12.9 24 Este 37 Este 0 925.1 1.5 64
2019-04-19 12:00:00 12.5 24 Este 37 Este 0 924.6 1.8 68
2019-04-19 11:00:00 11.2 26 Este 35 Este 0 923.8 1.4 77
2019-04-19 10:00:00 9.4 18 Este 26 Este 0 923.6 1.9 88
2019-04-19 09:00:00 9.3 6 Este 9 Este 0 922.8 1.5 89
2019-04-19 08:00:00 7.8 2 Sudeste 9 Este 0 922.4 1.4 95
2019-04-19 07:00:00 7.6 0 Calma 8 Sur 0 921.7 0.3 94
2019-04-19 06:00:00 7.8 3 Sur 11 Sudoeste 0 921.3 -0.1 95
2019-04-19 05:00:00 8 9 Sudoeste 15 Oeste 0 921 -0.7 95
2019-04-19 04:00:00 7.9 8 Sudoeste 15 Oeste 0 921.4 -0.7 95
2019-04-19 03:00:00 7.8 8 Oeste -- -- -- 921.4 -0.8 95
2019-04-19 02:00:00 8.2 8 Oeste 11 Oeste 0 921.7 -0.5 94
2019-04-19 01:00:00 8.3 6 Noroeste 11 Noroeste 0.2 922.1 0.3 93
2019-04-19 00:00:00 8.5 8 Noroeste 11 Noroeste 0 922.2 1 92
2019-04-18 23:00:00 8.8 5 Norte 13 Norte 0.6 922.2 1.5 89
2019-04-18 22:00:00 9.6 12 Este 15 Este 0.4 921.8 1.1 82
2019-04-18 21:00:00 10.6 13 Nordeste 21 Nordeste 0 921.2 0.8 73
2019-04-18 20:00:00 11.8 15 Nordeste 24 Este 0 920.7 0.4 61
2019-04-18 19:00:00 12.4 14 Este 26 Este 0 920.7 0.1 61
2019-04-18 18:00:00 12.2 22 Este 39 Este 0 920.4 -0.4 60
2019-04-18 17:00:00 13.8 23 Este 35 Este 0 920.3 -1 57
2019-04-18 16:00:00 14.2 9 Este 21 Este 0 920.6 -1.2 50
2019-04-18 15:00:00 13.9 11 Este 22 Este 0 920.8 -1.2 53
2019-04-18 14:00:00 13 11 Este 18 Este 0 921.3 -0.6 58
2019-04-18 13:00:00 12 12 Nordeste 21 Nordeste 0 921.8 0 64
2019-04-18 12:00:00 11.8 5 Nordeste 13 Nordeste 0 922 0.4 64
2019-04-18 11:00:00 10.5 3 Norte 13 Oeste 0 921.9 0.6 79
2019-04-18 10:00:00 9.3 5 Sudoeste 13 Sudoeste 0 921.8 1.1 83
2019-04-18 09:00:00 7.5 2 Sur 11 Sur 0 921.6 1.1 90
2019-04-18 08:00:00 5.4 3 Este 11 Sur 0 921.3 0.7 91
2019-04-18 07:00:00 6.7 0 Calma 13 Sur 0 920.7 0.1 91
2019-04-18 06:00:00 7.4 11 Sudoeste 15 Sudoeste 0 920.5 -0.4 90
2019-04-18 05:00:00 8.2 8 Sur 11 Sur 0 920.6 -0.1 86
2019-04-18 04:00:00 8.4 8 Sur 22 Oeste 0 920.6 0 85
2019-04-18 03:00:00 8.6 15 Sudoeste 35 Sudoeste 0 920.9 1.1 85
2019-04-18 02:00:00 9.2 18 Sudoeste 30 Sudoeste 0 920.7 1 85
2019-04-18 01:00:00 9 13 Sudoeste 22 Sudoeste 0 920.6 1.7 88
2019-04-18 00:00:00 9.1 16 Sudoeste 28 Sudoeste 0 919.8 1.5 86
2019-04-17 23:00:00 9.5 20 Sudoeste 32 Sudoeste 0.1 919.7 2.9 86
2019-04-17 22:00:00 10 25 Oeste 45 Oeste 0 918.9 2.1 86
2019-04-17 21:00:00 12.8 33 Oeste 58 Sur 0 918.3 1.3 74
2019-04-17 20:00:00 16.7 31 Sur 50 Sur 0 916.8 0 47
2019-04-17 19:00:00 17.9 36 Sur 58 Sur 0 916.8 -0.3 42
2019-04-17 18:00:00 19.4 28 Sur 46 Sudoeste 0 917 -0.6 36
2019-04-17 17:00:00 20.9 32 Sudoeste 42 Sudoeste 0 916.8 -1.3 33
2019-04-17 16:00:00 21.3 26 Sur 41 Sur 0 917.1 -1.6 31
2019-04-17 15:00:00 19.9 19 Sur 37 Sur 0 917.6 -1.3 31
2019-04-17 14:00:00 19.6 27 Sur 39 Sur 0 918.1 -0.9 30
2019-04-17 13:00:00 19.3 20 Sudoeste 35 Sudoeste 0 918.7 0.1 37
2019-04-17 12:00:00 18.6 21 Sudoeste 33 Sur 0 918.9 0.2 39
2019-04-17 11:00:00 15.2 10 Oeste 17 Noroeste 0 919 0.5 55
2019-04-17 10:00:00 10.8 8 Noroeste 15 Noroeste 0 918.6 0.1 73
2019-04-17 09:00:00 7 0 Calma 18 Sudeste 0 918.7 -0.1 84
2019-04-17 08:00:00 5.9 9 Este 11 Este 0 918.5 -0.5 79
2019-04-17 07:00:00 6.8 8 Este 11 Sur 0 918.5 -0.9 77
2019-04-17 06:00:00 7.4 6 Sur 11 Sudeste 0 918.8 -0.9 79
2019-04-17 05:00:00 7.8 4 Nordeste 11 Este 0 919 -1.1 79
2019-04-17 04:00:00 9 3 Oeste 17 Oeste 0 919.4 -1.9 79
2019-04-17 03:00:00 9.8 7 Sudeste 9 Sudeste 0 919.7 -2.2 69
2019-04-17 02:00:00 9.2 8 Este 13 Sudeste 0 920.1 -2.1 70
2019-04-17 01:00:00 8.8 8 Este 11 Este 0 921.3 -0.9 72
2019-04-17 00:00:00 10.3 3 Sudeste -- -- 0 921.9 -0.3 68
2019-04-16 23:00:00 11.9 0 Calma 9 Oeste 0 922.2 0.4 60
2019-04-16 22:00:00 12.7 0 Calma 15 Sudoeste 0 922.2 -0.1 58
2019-04-16 21:00:00 14.9 13 Sudoeste 22 Oeste 0 922.2 -0.4 51
2019-04-16 20:00:00 18 12 Oeste 22 Oeste 0 921.8 -1.2 44
2019-04-16 19:00:00 19.8 10 Oeste 18 Oeste 0 922.3 -1.7 35
2019-04-16 18:00:00 20.5 7 Sur 18 Sudoeste 0 922.6 -2.1 32
2019-04-16 17:00:00 19.9 4 Oeste 13 Oeste 0 923 -2.3 30
2019-04-16 16:00:00 19.1 4 Oeste 21 Sur 0 924 -1.7 28
2019-04-16 15:00:00 18.3 5 Oeste 24 Sudoeste 0 924.7 -1.6 32
2019-04-16 14:00:00 17.4 5 Sur 24 Sudeste 0 925.3 -1.3 37
2019-04-16 13:00:00 15.4 10 Este 28 Este 0 925.7 -1.2 51
2019-04-16 12:00:00 13.5 14 Este 30 Este 0 926.3 -0.6 63
2019-04-16 11:00:00 10.7 9 Este 17 Este 0 926.6 -0.3 76
2019-04-16 10:00:00 6.7 2 Este 5 Sudeste 0 926.9 0.1 93
2019-04-16 09:00:00 2.3 0 Calma 4 Nordeste 0 926.9 0.2 98
2019-04-16 08:00:00 0.8 0 Calma 11 Sudeste 0 926.9 0 98
2019-04-16 07:00:00 0.5 0 Calma 5 Nordeste 0 926.8 0 98
2019-04-16 06:00:00 1.4 0 Calma -- -- 0 926.7 -0.3 96
2019-04-16 05:00:00 3 0 Calma 8 Sudeste 0 926.9 0.2 95
2019-04-16 04:00:00 3.5 0 Calma 9 Noroeste 0 926.8 0.1 97
2019-04-16 03:00:00 4.2 3 Oeste 8 Oeste 0 927 0.6 93
2019-04-16 02:00:00 4.5 5 Sudoeste 9 Sudoeste 0 926.7 0.8 92
2019-04-16 01:00:00 5.9 3 Oeste 9 Oeste 0 926.7 1.9 91
2019-04-16 00:00:00 7 0 Calma 2 Noroeste 0 926.4 2.3 89
2019-04-15 23:00:00 8.2 5 Oeste 11 Sudoeste 0 925.9 2.4 87
2019-04-15 22:00:00 8.5 0 Calma 30 Norte 0 924.8 1.4 85
2019-04-15 21:00:00 11 21 Noroeste 39 Noroeste 0 924.1 1.6 76
2019-04-15 20:00:00 12.1 18 Oeste 26 Oeste 0 923.5 1.6 77
2019-04-15 19:00:00 10.6 20 Oeste 41 Oeste 0.1 923.4 2.5 84
2019-04-15 18:00:00 11 27 Oeste 58 Oeste 0 922.5 2.3 75
2019-04-15 17:00:00 13.5 46 Oeste 63 Noroeste 0 921.9 1.6 56
2019-04-15 16:00:00 16.7 37 Oeste 59 Oeste 0 920.9 0.3 53
2019-04-15 15:00:00 19.7 40 Sudoeste 63 Sudoeste 0 920.2 0.1 41
2019-04-15 14:00:00 19.5 44 Sudoeste 65 Sudoeste 0 920.3 -0.1 50
2019-04-15 13:00:00 17.9 45 Oeste 61 Oeste 0 920.6 -0.1 62
2019-04-15 12:00:00 19.9 29 Sudoeste 41 Sudoeste 0 920.1 -0.8 56
2019-04-15 11:00:00 15.9 8 Sur 15 Sur 0 920.4 -0.5 70
2019-04-15 10:00:00 12.4 0 Calma 8 Sudoeste 0 920.7 -0.6 85
2019-04-15 09:00:00 11.2 0 Calma 13 Sudeste 0 920.9 -0.8 90
2019-04-15 08:00:00 10.6 12 Sudeste 17 Sudeste 0 920.9 -1.4 90
2019-04-15 07:00:00 10.1 7 Sudeste 9 Sudeste 0 921.3 -1.6 91
2019-04-15 06:00:00 9.6 3 Este 9 Sudeste 0 921.7 -2 91
2019-04-15 05:00:00 9.5 4 Sudeste 9 Sudeste 0 922.3 -1.6 90
2019-04-15 04:00:00 10.3 5 Sudeste 8 Sudeste 0 922.9 -1.2 88
2019-04-15 03:00:00 11 0 Calma 9 Sur 0 923.7 -0.9 87
2019-04-15 02:00:00 10.7 0 Calma 8 Norte 0 923.9 -0.8 88
2019-04-15 01:00:00 12.3 0 Calma 9 Sur 0 924.1 -0.5 81
2019-04-15 00:00:00 14.8 7 Sudeste 11 Sur 0 924.6 0.3 77
2019-04-14 23:00:00 14.3 7 Sudeste 9 Sudeste 0 924.7 0.1 77
2019-04-14 22:00:00 15.4 0 Calma 8 Norte 0 924.6 0 70
2019-04-14 21:00:00 16.8 5 Norte 13 Norte 0 924.3 -0.6 65
2019-04-14 20:00:00 18.2 9 Noroeste 17 Oeste 0 924.6 -0.7 61
2019-04-14 19:00:00 19.5 9 Oeste 18 Oeste 0 924.6 -1.4 55
2019-04-14 18:00:00 19.1 10 Noroeste 18 Oeste 0 924.9 -1.3 58
2019-04-14 17:00:00 19.3 10 Noroeste 21 Oeste 0 925.3 -1.1 58
2019-04-14 16:00:00 19.7 10 Noroeste 22 Oeste 0 926 -0.8 57
2019-04-14 15:00:00 18.6 14 Noroeste 22 Oeste 0 926.2 -1.1 59
2019-04-14 14:00:00 17.8 12 Oeste 26 Oeste 0 926.4 -0.9 61
2019-04-14 13:00:00 16.6 8 Oeste 18 Oeste 0 926.8 -0.3 65
2019-04-14 12:00:00 15.6 9 Oeste 21 Oeste 0 927.3 0.3 71
2019-04-14 11:00:00 13.4 13 Sudoeste 18 Sudoeste 0 927.3 0.4 80
2019-04-14 10:00:00 11.9 14 Sudoeste 18 Sudoeste 0 927.1 0.4 87
2019-04-14 09:00:00 11.3 11 Sudoeste 15 Sudoeste 0 927 0.2 90
2019-04-14 08:00:00 10.4 8 Sudoeste 15 Sudoeste 0 926.9 -0.2 94
2019-04-14 07:00:00 11.3 9 Sudoeste 15 Oeste 0 926.7 -0.5 92
2019-04-14 06:00:00 11.3 10 Oeste 17 Oeste 0 926.8 -0.7 92
2019-04-14 05:00:00 10 6 Sudoeste 17 Oeste 0 927.1 -0.7 94
2019-04-14 04:00:00 9.8 12 Oeste 13 Oeste 0 927.2 -0.7 93
2019-04-14 03:00:00 10 10 Sudoeste 13 Sudoeste 0 927.5 -0.3 88
2019-04-14 02:00:00 11.4 12 Oeste 21 Oeste 0 927.8 -0.1 82
2019-04-14 01:00:00 12.3 15 Oeste 21 Oeste 0 927.9 0.7 74
2019-04-14 00:00:00 12.5 10 Oeste 18 Oeste 0 927.8 1.4 68
2019-04-13 23:00:00 14.5 17 Oeste 24 Oeste 0 927.9 1.6 56
2019-04-13 22:00:00 15.1 19 Oeste 28 Oeste 0 927.2 1.2 53
2019-04-13 21:00:00 15.1 12 Oeste 17 Noroeste 0 926.4 0.4 55
2019-04-13 20:00:00 17.6 13 Noroeste 32 Oeste 0 926.3 -0.1 38
2019-04-13 19:00:00 20.4 14 Oeste 26 Oeste 0 926 -0.9 26
2019-04-13 18:00:00 20.4 12 Sudoeste 22 Oeste 0 926 -1.2 27
2019-04-13 17:00:00 20.1 10 Oeste 21 Oeste 0 926.4 -1.2 27
2019-04-13 16:00:00 19 4 Noroeste 18 Oeste 0 926.9 -0.9 26
2019-04-13 15:00:00 18.8 7 Sudoeste 15 Oeste 0 927.2 -1.1 33
2019-04-13 14:00:00 17.1 5 Noroeste 18 Sudeste 0 927.6 -0.8 32
2019-04-13 13:00:00 16.5 2 Nordeste 15 Sudeste 0 927.8 -0.5 38
2019-04-13 12:00:00 15.3 2 Sudoeste 15 Sur 0 928.3 0.1 41
2019-04-13 11:00:00 11.5 0 Calma 8 Sur 0 928.4 0.5 61
2019-04-13 10:00:00 6.2 0 Calma 5 Este 0 928.3 0.8 82
2019-04-13 09:00:00 3.8 3 Este 5 Este 0 928.2 0.9 88
2019-04-13 08:00:00 2.6 7 Sudeste 9 Sudeste 0 927.9 0.7 90
2019-04-13 07:00:00 2.9 0 Calma 4 Sudeste 0 927.5 0.2 87
2019-04-13 06:00:00 2.7 0 Calma 8 Este 0 927.3 -0.3 86
2019-04-13 05:00:00 2.4 3 Este 8 Este 0 927.2 -0.7 87
2019-04-13 04:00:00 2.5 -- -- -- -- 0 927.3 -0.5 85
2019-04-13 03:00:00 2.8 -- -- -- -- 0 927.6 0 81
2019-04-13 02:00:00 4 6 Este 8 Sudeste 0 927.9 0.1 80
2019-04-13 01:00:00 5.6 4 Sudeste 5 Sudeste 0 927.8 0.9 75
2019-04-13 00:00:00 6.8 3 Sur 8 Sur 0 927.6 1.3 71
2019-04-12 23:00:00 8.8 0 Calma 8 Oeste 0 927.8 1.4 61
2019-04-12 22:00:00 10.5 4 Norte 9 Nordeste 0 926.9 0.5 51
2019-04-12 21:00:00 12.7 8 Nordeste 13 Norte 0 926.3 -0.2 41
2019-04-12 20:00:00 15.3 12 Noroeste 17 Noroeste 0 926.4 -0.3 38
2019-04-12 19:00:00 16.2 8 Noroeste 17 Noroeste 0 926.4 -0.9 33
2019-04-12 18:00:00 15.7 6 Noroeste 26 Norte 0 926.5 -1.3 38
2019-04-12 17:00:00 15.4 7 Norte 24 Norte 0 926.7 -1.5 39
2019-04-12 16:00:00 15.1 5 Nordeste 21 Nordeste 0 927.3 -1.2 41
2019-04-12 15:00:00 14.3 4 Este 21 Noroeste 0 927.8 -1.1 43
2019-04-12 14:00:00 13 8 Norte 21 Norte 0 928.2 -0.7 49
2019-04-12 13:00:00 12.2 3 Sur 18 Sur 0 928.5 -0.2 53
2019-04-12 12:00:00 10.7 8 Este 15 Este 0 928.9 0.6 62
2019-04-12 11:00:00 8.3 8 Este 17 Este 0 928.9 0.6 74
2019-04-12 10:00:00 4.9 4 Este 9 Sudeste 0 928.7 0.7 82
2019-04-12 09:00:00 0.8 4 Sudeste 9 Sudeste 0 928.3 0.4 90
2019-04-12 08:00:00 -0.6 0 Calma 9 Sudeste 0 928.3 0.3 93
2019-04-12 07:00:00 0 5 Sur 8 Sur 0 928 0 93
2019-04-12 06:00:00 0.3 0 Calma -- -- 0 927.9 -0.2 92
2019-04-12 05:00:00 0.9 3 Sur 11 Sudeste 0 928 -0.4 90
2019-04-12 04:00:00 1.5 0 Calma 8 Este 0 928 0 88
2019-04-12 03:00:00 1.7 0 Calma 11 Este 0 928.1 0.1 87
2019-04-12 02:00:00 2.7 5 Este 33 Este 0 928.4 0.4 85
2019-04-12 01:00:00 3.6 0 Calma 5 Oeste 0 928 0.2 89
2019-04-12 00:00:00 5.3 0 Calma 5 Oeste 0 928 0.7 79
2019-04-11 23:00:00 6.1 0 Calma 8 Norte 0 928 0.9 73
2019-04-11 22:00:00 8.1 7 Norte 11 Nordeste 0 927.8 0.6 63
2019-04-11 21:00:00 10.4 6 Nordeste 18 Nordeste 0 927.3 0 52
2019-04-11 20:00:00 12.3 14 Nordeste 24 Nordeste 0 927.1 -0.3 40
2019-04-11 19:00:00 12.4 14 Norte 18 Norte 0 927.2 -0.6 42
2019-04-11 18:00:00 12.9 4 Norte 22 Norte 0 927.3 -0.8 41
2019-04-11 17:00:00 12.7 14 Norte 24 Norte 0 927.4 -1 45
2019-04-11 16:00:00 11.6 8 Noroeste 17 Nordeste 0 927.8 -0.9 52
2019-04-11 15:00:00 11.5 8 Nordeste 18 Norte 0 928.1 -0.6 50
2019-04-11 14:00:00 11.3 6 Este 17 Este 0 928.4 -0.2 54
2019-04-11 13:00:00 9.7 3 Nordeste 17 Este 0 928.7 0.3 61
2019-04-11 12:00:00 9.6 10 Nordeste 22 Este 0 928.7 0.2 67
2019-04-11 11:00:00 5.9 0 Calma 4 Norte 0 928.6 0.7 95
2019-04-11 10:00:00 1.4 0 Calma -- -- 0 928.4 0.7 98
2019-04-11 09:00:00 -1 0 Calma 5 Nordeste 0 928.5 0.7 98
2019-04-11 08:00:00 -1.8 0 Calma -- -- 0 927.9 0.4 98
2019-04-11 07:00:00 -1.7 0 Calma -- -- 0 927.7 0.3 98
2019-04-11 06:00:00 -0.8 0 Calma 4 Norte 0 927.8 0.5 98
2019-04-11 05:00:00 0 3 Sudeste -- -- 0 927.5 0.2 98
2019-04-11 04:00:00 1.2 0 Calma 11 Sudoeste 0 927.4 0.2 98
2019-04-11 03:00:00 0.8 3 Sur 9 Sur 0 927.3 0.5 98
2019-04-11 02:00:00 1.9 0 Calma 4 Sudeste 0 927.3 0.5 97
2019-04-11 01:00:00 3 0 Calma 5 Noroeste 0 927.2 1 96
2019-04-11 00:00:00 3.7 5 Oeste 9 Oeste 0 926.8 1.7 95
2019-04-10 23:00:00 4.4 6 Sur 15 Sudoeste 0 926.8 2.4 94
2019-04-10 22:00:00 5.7 10 Sur 22 Este 1 926.2 2 92
2019-04-10 21:00:00 5.9 9 Oeste 26 Oeste 0 925.1 1.4 87
2019-04-10 20:00:00 6.5 15 Oeste 26 Oeste 0 924.4 0.7 85
2019-04-10 19:00:00 7.1 9 Noroeste 32 Oeste 0 924.2 0.6 86
2019-04-10 18:00:00 7.7 17 Oeste 32 Noroeste 0 923.7 0.1 77
2019-04-10 17:00:00 6.5 7 Noroeste 39 Noroeste 1.1 923.7 0.1 89
2019-04-10 16:00:00 8.2 23 Noroeste 48 Norte 0.3 923.6 -0.5 76
2019-04-10 15:00:00 10.7 22 Noroeste 39 Oeste 0 923.6 -0.4 63
2019-04-10 14:00:00 10.8 24 Oeste 41 Noroeste 0 923.6 -0.6 60
2019-04-10 13:00:00 9.5 25 Oeste 42 Oeste 0 924.1 0.2 66
2019-04-10 12:00:00 9.2 25 Oeste 41 Oeste 0 924 0.3 67
2019-04-10 11:00:00 7 24 Oeste 39 Oeste 0 924.2 0.9 77
2019-04-10 10:00:00 6.2 22 Oeste 32 Oeste 0 923.9 0.9 83
2019-04-10 09:00:00 5.3 15 Oeste 28 Sudoeste 0 923.7 0.9 91
2019-04-10 08:00:00 5 21 Oeste 33 Oeste 0 923.3 0.2 90
2019-04-10 07:00:00 4.9 22 Oeste 32 Oeste 0 923 0 89
2019-04-10 06:00:00 5.3 17 Oeste 28 Oeste 0 922.8 -0.4 89
2019-04-10 05:00:00 5.3 18 Oeste 30 Oeste 0 923.1 -0.3 89
2019-04-10 04:00:00 5.4 17 Sudoeste 28 Oeste 0 923 -0.2 89
2019-04-10 03:00:00 5.2 19 Oeste 28 Oeste 0 923.2 0 91
2019-04-10 02:00:00 4.6 17 Oeste 26 Oeste 0 923.4 0.2 91
2019-04-10 01:00:00 5.2 21 Oeste 32 Oeste 0 923.2 0.6 88
2019-04-10 00:00:00 5.3 14 Sudoeste 45 Oeste 0 923.2 1.2 91
2019-04-09 23:00:00 6.6 28 Oeste 42 Oeste 0 923.2 1.9 83
2019-04-09 22:00:00 7.1 12 Noroeste 21 Oeste 0.1 922.6 1.4 83
2019-04-09 21:00:00 7.4 20 Oeste 45 Oeste 0 922 0.8 78
2019-04-09 20:00:00 9.6 27 Oeste 45 Oeste 0 921.3 0.3 61
2019-04-09 19:00:00 10.4 31 Oeste 50 Oeste 0 921.2 -0.1 56
2019-04-09 18:00:00 10.2 26 Oeste 52 Oeste 0 921.2 -0.3 62
2019-04-09 17:00:00 11.4 36 Oeste 52 Noroeste 0 921 -0.4 53
2019-04-09 16:00:00 10.9 32 Oeste 50 Oeste 0 921.3 -0.4 54
2019-04-09 15:00:00 10.3 35 Oeste 54 Oeste 0 921.5 -0.6 61
2019-04-09 14:00:00 8.9 26 Oeste 41 Oeste 0 921.4 0.3 77
2019-04-09 13:00:00 5.5 30 Oeste 45 Oeste 0.2 921.7 0.7 88
2019-04-09 12:00:00 3.6 35 Oeste 54 Oeste 1.8 922.1 1.1 92
2019-04-09 11:00:00 6.5 30 Oeste 42 Sudoeste 0.3 921.1 0.4 85
2019-04-09 10:00:00 7.2 22 Sudoeste 30 Sudoeste 0 921 0.1 81
2019-04-09 09:00:00 6.1 15 Sudoeste 26 Sudoeste 0 921 0.1 86
2019-04-09 08:00:00 5.4 14 Sudoeste 21 Sudoeste 0 920.7 -0.5 88
2019-04-09 07:00:00 5.2 17 Sudoeste 35 Sudoeste 0 920.9 -0.6 89
2019-04-09 06:00:00 4.9 20 Sur 28 Sudoeste 0 920.9 -1 88
2019-04-09 05:00:00 4.8 18 Sudoeste 24 Sudoeste 0 921.2 -0.6 89
2019-04-09 04:00:00 4.9 15 Sudoeste 21 Sudoeste 0 921.5 -0.7 90
2019-04-09 03:00:00 3.5 14 Sudoeste 18 Sudoeste 0 921.9 0 92
2019-04-09 02:00:00 4.1 10 Oeste 21 Oeste 0 921.8 -0.3 89
2019-04-09 01:00:00 4.5 13 Oeste 18 Sudoeste 0 922.2 0.4 89
2019-04-09 00:00:00 5.2 15 Sudoeste 24 Sudoeste 0 921.9 0.4 84
2019-04-08 23:00:00 6 17 Sudoeste 22 Sudoeste 0 922.1 0.6 83
2019-04-08 22:00:00 6.5 14 Sudoeste 21 Oeste 0 921.8 0.8 82
2019-04-08 21:00:00 8.9 18 Oeste 33 Oeste 0 921.5 1 66
2019-04-08 20:00:00 9.9 27 Oeste 39 Oeste 0 921.5 0.7 61
2019-04-08 19:00:00 10.3 27 Noroeste 52 Noroeste 0 921 -0.3 63
2019-04-08 18:00:00 13.9 23 Oeste 37 Oeste 0 920.5 -1.2 40
2019-04-08 17:00:00 13.8 21 Oeste 48 Oeste 0 920.8 -1.3 46
2019-04-08 16:00:00 13.5 23 Oeste 37 Oeste 0 921.3 -0.9 44
2019-04-08 15:00:00 12.9 28 Oeste 41 Oeste 0 921.7 -0.5 50
2019-04-08 14:00:00 9.8 15 Oeste 33 Oeste 0.1 922.1 0.5 78
2019-04-08 13:00:00 9.5 13 Oeste 35 Oeste 0 922.2 0.7 76
2019-04-08 12:00:00 9.6 22 Oeste 33 Oeste 0 922.2 1 75
2019-04-08 11:00:00 9.8 16 Oeste 33 Oeste 0 921.6 1 75
2019-04-08 10:00:00 8.4 20 Oeste 35 Oeste 0 921.5 1.5 84
2019-04-08 09:00:00 7.5 27 Oeste 33 Oeste 0 921.2 1.6 88
2019-04-08 08:00:00 7.2 18 Oeste 32 Oeste 0 920.6 1.2 91
2019-04-08 07:00:00 7.7 16 Oeste 26 Oeste 0 920 0.8 92
2019-04-08 06:00:00 8 21 Oeste 39 Oeste 0.6 919.6 0.1 93
2019-04-08 05:00:00 8.6 25 Sudoeste 35 Sudoeste 1.2 919.4 -0.2 92
2019-04-08 04:00:00 8.7 21 Sudoeste 30 Sudoeste 0 919.2 -0.6 89
2019-04-08 03:00:00 8.3 15 Sudoeste 28 Sudoeste 0 919.5 -0.7 89
2019-04-08 02:00:00 7.7 16 Sudoeste 30 Sudoeste 0 919.6 -0.7 90
2019-04-08 01:00:00 7.8 19 Sudoeste 24 Sudoeste 0 919.8 -0.3 91
2019-04-08 00:00:00 7.6 13 Sudoeste 21 Sudoeste 0 920.2 0.4 90
2019-04-07 23:00:00 8.3 16 Sudoeste 39 Sudoeste 0 920.3 0.4 87
2019-04-07 22:00:00 8.3 23 Sudoeste 35 Sudoeste 0 920.1 0 87
2019-04-07 21:00:00 7.9 19 Sudoeste 30 Sudoeste 0 919.8 -0.4 89
2019-04-07 20:00:00 7.7 14 Sur 18 Sur 0 919.9 -0.4 91
2019-04-07 19:00:00 7.4 14 Sur 26 Sudoeste 0.4 920.1 -0.1 86
2019-04-07 18:00:00 7.7 20 Sudoeste 28 Sudoeste 0.4 920.2 0 82
2019-04-07 17:00:00 8.3 21 Sudoeste 35 Oeste 0.2 920.3 0.2 76
2019-04-07 16:00:00 8.7 18 Oeste 33 Oeste 0 920.2 0 65
2019-04-07 15:00:00 9.8 18 Sudoeste 28 Oeste 0 920.2 0.1 65
2019-04-07 14:00:00 9.9 18 Oeste 37 Oeste 0 920.1 0.3 58
2019-04-07 13:00:00 9.4 22 Oeste 32 Oeste 0 920.2 0.6 58
2019-04-07 12:00:00 7.7 15 Oeste 28 Oeste 0 920.1 1.2 67
2019-04-07 11:00:00 6.9 16 Oeste 26 Oeste 0 919.8 1.8 71
2019-04-07 10:00:00 5.2 14 Oeste 26 Oeste 0 919.6 2.5 81
2019-04-07 09:00:00 4 13 Oeste 30 Oeste 0 918.9 2.2 86
2019-04-07 08:00:00 3.5 23 Oeste 33 Oeste 0 918 1.6 88
2019-04-07 07:00:00 3.2 21 Oeste 32 Oeste 0 917.1 1.1 89
2019-04-07 06:00:00 2.1 21 Oeste 30 Oeste 0 916.7 0.9 92
2019-04-07 05:00:00 3.3 19 Oeste 33 Oeste 0 916.4 1 88
2019-04-07 04:00:00 3.4 24 Oeste 41 Oeste 0 916 0.8 88
2019-04-07 03:00:00 3.9 27 Oeste 39 Oeste 0 915.8 0.7 85
2019-04-07 02:00:00 4.1 25 Oeste 41 Oeste 0 915.4 0.5 86
2019-04-07 01:00:00 3.8 21 Oeste 37 Oeste 0 915.2 0.7 88
2019-04-07 00:00:00 3.7 24 Sudoeste 33 Oeste 0 915.1 1.1 86
2019-04-06 23:00:00 3.1 12 Sudoeste 33 Oeste 0 914.9 1.7 88
2019-04-06 22:00:00 3.9 24 Oeste 46 Oeste 0 914.5 2.2 82
2019-04-06 21:00:00 6 37 Oeste 48 Oeste 0 914 2.2 72
2019-04-06 20:00:00 6.6 28 Oeste 61 Oeste 0 913.2 1.6 72
2019-04-06 19:00:00 8.5 42 Oeste 65 Oeste 0 912.3 0.5 57
2019-04-06 18:00:00 7.7 36 Oeste 58 Oeste 0.1 911.8 0.4 68
2019-04-06 17:00:00 6.3 35 Oeste 55 Oeste 0 911.6 0.5 83
2019-04-06 16:00:00 3.7 36 Oeste 63 Oeste 1.1 911.8 0.8 90
2019-04-06 15:00:00 7 40 Oeste 71 Oeste 0 911.4 0.1 75
2019-04-06 14:00:00 7.1 41 Oeste 63 Oeste 0 911.1 0.1 71
2019-04-06 13:00:00 7.3 51 Sudoeste 68 Oeste 0 911 -0.2 71
2019-04-06 12:00:00 5 41 Oeste 59 Sudoeste 0 911.3 0.6 80
2019-04-06 11:00:00 4.4 40 Sudoeste 55 Sudoeste 0 911 0.5 80
2019-04-06 10:00:00 3.8 40 Oeste 52 Oeste 0 911.2 0.8 84
2019-04-06 09:00:00 2.9 18 Sudoeste 41 Sudoeste 0.2 910.7 0.4 90
2019-04-06 08:00:00 2.6 25 Sudoeste 39 Sudoeste 0.2 910.5 -0.1 89
2019-04-06 07:00:00 2.8 19 Sudoeste 28 Sudoeste 0 910.4 -0.6 88
2019-04-06 06:00:00 2.8 13 Sur 30 Sudoeste 0 910.3 -1 88
2019-04-06 05:00:00 2.5 15 Sudoeste 30 Oeste 0 910.6 -0.7 88
2019-04-06 04:00:00 2.4 18 Sudoeste 33 Oeste 0 911 -0.3 90
2019-04-06 03:00:00 2.8 21 Oeste 30 Oeste 0 911.3 0.1 90
2019-04-06 02:00:00 2.3 16 Oeste 30 Oeste 0 911.3 0.6 91
2019-04-06 01:00:00 2.7 17 Oeste 26 Oeste 0 911.3 1.4 92
2019-04-06 00:00:00 2.2 15 Oeste 28 Oeste 0 911.2 1.9 92
2019-04-05 23:00:00 3 24 Oeste 33 Oeste 0.3 910.7 2 89
2019-04-05 22:00:00 3.6 9 Sudoeste 32 Oeste 0.6 909.9 2.1 90
2019-04-05 21:00:00 4.4 19 Sudoeste 46 Oeste 0 909.3 1.5 78
2019-04-05 20:00:00 6.6 31 Oeste 48 Oeste 0 908.7 1 63
2019-04-05 19:00:00 8.8 24 Oeste 35 Oeste 0 907.8 -0.3 51
2019-04-05 18:00:00 6.2 14 Oeste 50 Oeste 0 907.8 -0.5 66
2019-04-05 17:00:00 7.1 14 Oeste 32 Sudoeste 0 907.7 -0.1 68
2019-04-05 16:00:00 5.6 17 Oeste 41 Oeste 0.1 908.1 -0.1 76
2019-04-05 15:00:00 4.1 33 Oeste 41 Oeste 0 908.3 -0.2 84
2019-04-05 14:00:00 7.2 22 Sudoeste 37 Oeste 0 907.8 -0.4 68
2019-04-05 13:00:00 6 15 Sudoeste 24 Oeste 0 908.2 0.5 76
2019-04-05 12:00:00 4.1 9 Oeste 21 Oeste 0.2 908.5 1 87
2019-04-05 11:00:00 3.5 15 Sudoeste 21 Sudoeste 0 908.2 1 86
2019-04-05 10:00:00 2.8 12 Sudoeste 18 Sudoeste 0 907.7 0.6 89
2019-04-05 09:00:00 2.4 11 Oeste 21 Oeste 0 907.5 1.1 93
2019-04-05 08:00:00 1.7 11 Oeste 30 Oeste 0.4 907.2 0.5 94
2019-04-05 07:00:00 2.4 28 Oeste 65 Oeste 0.7 907.1 0.2 90
2019-04-05 06:00:00 4.9 23 Sudoeste 41 Sur 0 906.4 -1 86
2019-04-05 05:00:00 4.5 25 Sudoeste 41 Sur 0 906.7 -1.4 83
2019-04-05 04:00:00 4.1 25 Sudoeste 42 Sudoeste 0 906.9 -1.6 83
2019-04-05 03:00:00 4.3 29 Sudoeste 42 Sudoeste 0 907.4 -1.9 85
2019-04-05 02:00:00 4.5 30 Sudoeste 46 Sudoeste 0 908.1 -1.6 84
2019-04-05 01:00:00 4.3 23 Sudoeste 33 Sudoeste 0 908.5 -1.2 85
2019-04-05 00:00:00 4.7 16 Sur 30 Sudoeste 0 909.3 -0.5 86
2019-04-04 23:00:00 5.4 23 Sudoeste 37 Sudoeste 0 909.7 -0.6 75
2019-04-04 22:00:00 6.4 14 Oeste 26 Oeste 0 909.7 -0.3 67
2019-04-04 21:00:00 6.6 14 Noroeste 37 Oeste 0 909.8 -0.3 68
2019-04-04 20:00:00 8.4 23 Oeste 48 Oeste 0 910.3 -0.2 52
2019-04-04 19:00:00 10.3 23 Oeste 42 Oeste 0 910 -1.3 37
2019-04-04 18:00:00 11.6 24 Oeste 41 Oeste 0 910.1 -2.3 31
2019-04-04 17:00:00 12.4 24 Oeste 42 Oeste 0 910.5 -3 29
2019-04-04 16:00:00 12 22 Oeste 46 Oeste 0 911.3 -3 29
2019-04-04 15:00:00 10.8 18 Oeste 39 Oeste 0 912.4 -2.3 34
2019-04-04 14:00:00 9.3 16 Oeste 28 Oeste 0 913.5 -1.4 37
2019-04-04 13:00:00 7.9 14 Oeste 30 Oeste 0 914.3 -0.7 43
2019-04-04 12:00:00 6 11 Sudoeste 21 Sudoeste 0 914.7 -0.4 49
2019-04-04 11:00:00 4.8 9 Oeste 17 Oeste 0 914.9 0.1 57
2019-04-04 10:00:00 1.6 2 Noroeste 8 Noroeste 0 915 0.5 72
2019-04-04 09:00:00 -2.2 0 Calma 8 Oeste 0 915.1 0.5 84
2019-04-04 08:00:00 -4.3 2 Oeste 11 Oeste 0 914.8 0 88
2019-04-04 07:00:00 -4.3 5 Sudoeste 13 Sudoeste 0 914.5 -0.5 88
2019-04-04 06:00:00 -3.4 3 Sudoeste 11 Sudoeste 0 914.6 -1.1 84
2019-04-04 05:00:00 -2.8 4 Oeste 8 Sur 0 914.8 -1.3 80
2019-04-04 04:00:00 -1.7 0 Calma 15 Noroeste 0 915 -1.5 75
2019-04-04 03:00:00 -0.5 12 Noroeste 18 Noroeste 0 915.7 -0.9 77
2019-04-04 02:00:00 -0.7 13 Oeste 15 Oeste 0 916.1 -0.2 71
2019-04-04 01:00:00 0.2 9 Oeste 13 Oeste 0 916.5 0.8 66
2019-04-04 00:00:00 1.9 12 Norte 26 Norte 0 916.6 1.3 60
2019-04-03 23:00:00 4.2 14 Noroeste 30 Noroeste 0 916.3 1.3 53
2019-04-03 22:00:00 5.8 17 Noroeste 26 Norte 0 915.7 0.8 49
2019-04-03 21:00:00 7.4 17 Noroeste 35 Noroeste 0 915.3 0.4 44
2019-04-03 20:00:00 9.4 25 Noroeste 45 Noroeste 0 915 -0.3 37
2019-04-03 19:00:00 10.9 30 Noroeste 46 Noroeste 0 914.9 -1.2 36
2019-04-03 18:00:00 11.3 20 Noroeste 33 Noroeste 0 914.9 -1.8 37
2019-04-03 17:00:00 10.9 15 Noroeste 32 Oeste 0 915.3 -2.1 39
2019-04-03 16:00:00 10.5 14 Noroeste 30 Noroeste 0 916.1 -2 40
2019-04-03 15:00:00 10.4 6 Noroeste 26 Noroeste 0 916.7 -2 45
2019-04-03 14:00:00 10.6 7 Noroeste 28 Noroeste 0 917.4 -1.2 45
2019-04-03 13:00:00 7.9 3 Oeste 21 Oeste 0 918.1 -0.7 58
2019-04-03 12:00:00 6.1 10 Noroeste 30 Oeste 0 918.7 -0.3 66
2019-04-03 11:00:00 6.2 19 Noroeste 32 Noroeste 0 918.6 -0.4 67
2019-04-03 10:00:00 5.8 23 Oeste 30 Noroeste 0 918.8 -0.3 68
2019-04-03 09:00:00 4.7 16 Noroeste 30 Noroeste 0 919 -0.5 78
2019-04-03 08:00:00 4.4 14 Oeste 22 Oeste 0 919 -1 84
2019-04-03 07:00:00 2.8 2 Oeste 8 Oeste 0 919.1 -1.7 89
2019-04-03 06:00:00 3 0 Calma 8 Noroeste 0 919.5 -1.8 89
2019-04-03 05:00:00 3.4 2 Oeste 11 Oeste 0 920 -1.8 83
2019-04-03 04:00:00 4.4 7 Oeste 11 Oeste 0 920.8 -1.4 78
2019-04-03 03:00:00 3.5 7 Oeste 15 Oeste 0 921.3 -1 73
2019-04-03 02:00:00 4.1 12 Oeste 17 Oeste 0 921.8 -0.3 67
2019-04-03 01:00:00 5 9 Oeste 17 Oeste 0 922.2 0.1 61
2019-04-03 00:00:00 6.4 13 Oeste 18 Oeste 0 922.3 0.7 53
2019-04-02 23:00:00 6.6 14 Sudoeste 17 Sudoeste 0 922.1 0.3 51
2019-04-02 22:00:00 9.2 10 Oeste 26 Oeste 0 922.1 0.7 42
2019-04-02 21:00:00 12.7 18 Oeste 35 Oeste 0 921.6 0 29
2019-04-02 20:00:00 15.3 26 Noroeste 41 Oeste 0 921.8 -0.4 28
2019-04-02 19:00:00 17.2 27 Oeste 42 Noroeste 0 921.4 -1 28
2019-04-02 18:00:00 18 25 Oeste 46 Oeste 0 921.6 -1.4 27
2019-04-02 17:00:00 17.8 27 Oeste 39 Noroeste 0 922.2 -1.4 29
2019-04-02 16:00:00 17.9 24 Oeste 45 Oeste 0 922.4 -2 33
2019-04-02 15:00:00 17.1 22 Oeste 39 Oeste 0 923 -1.5 35
2019-04-02 14:00:00 16.2 23 Noroeste 37 Oeste 0 923.6 -1 44
2019-04-02 13:00:00 15.1 19 Oeste 32 Oeste 0 924.4 0 46
2019-04-02 12:00:00 14.4 19 Oeste 28 Oeste 0 924.5 0.3 47
2019-04-02 11:00:00 11.9 12 Oeste 22 Oeste -- 924.6 0.7 60
2019-04-02 10:00:00 9.1 13 Oeste 21 Oeste -- 924.4 0.8 79
2019-04-02 09:00:00 8.2 7 Sudoeste 11 Sudoeste 0 924.2 0.4 89
2019-04-02 08:00:00 6.9 0 Calma 5 Nordeste 0 923.9 -0.1 83
2019-04-02 07:00:00 7.1 3 Sur 9 Sudeste 0 923.6 -0.5 85
2019-04-02 06:00:00 6.4 0 Calma 5 Este 0 923.8 -0.4 79
2019-04-02 05:00:00 5.9 0 Calma 5 Sudoeste 0 924 -0.1 80
2019-04-02 04:00:00 6 3 Sudoeste 8 Sudoeste 0 924.1 0.1 78
2019-04-02 03:00:00 6.3 4 Nordeste 8 Nordeste 0 924.2 0.3 77
2019-04-02 02:00:00 8.2 5 Noroeste 13 Oeste 0 924.1 0.4 72
2019-04-02 01:00:00 8.5 5 Noroeste 17 Oeste 0 924 0.8 72
2019-04-02 00:00:00 9.6 13 Oeste 21 Oeste 0 923.9 1.7 68
2019-04-01 23:00:00 9.8 15 Noroeste 26 Oeste 0 923.7 2.3 68
2019-04-01 22:00:00 12.3 22 Oeste 30 Oeste 0 923.2 2.2 61
2019-04-01 21:00:00 13.4 14 Oeste 26 Sudoeste 0 922.2 1.2 48
2019-04-01 20:00:00 15.6 4 Noroeste 11 Noroeste 0 921.4 0.3 38
2019-04-01 19:00:00 16.7 5 Norte 17 Noroeste 0 921 -0.4 33
2019-04-01 18:00:00 17.5 8 Este 18 Nordeste 0 921 -0.9 32
2019-04-01 17:00:00 17.6 10 Norte 24 Este 0 921.1 -1.3 33
2019-04-01 16:00:00 17.4 4 Este 32 Este 0 921.4 -1.5 34
2019-04-01 15:00:00 17.3 7 Este 21 Este 0 921.9 -1.2 37
2019-04-01 14:00:00 15.8 9 Nordeste 22 Este 0 922.4 -0.5 46
2019-04-01 13:00:00 14 9 Este 21 Este 0 922.9 0.4 53
2019-04-01 12:00:00 12.5 11 Este 18 Este 0 923.1 1 61
2019-04-01 11:00:00 9.8 11 Este 17 Este 0 922.9 1.3 68
2019-04-01 10:00:00 6.3 0 Calma 8 Sudeste 0 922.5 1.2 79
2019-04-01 09:00:00 1.6 0 Calma 5 Sur 0 922.1 1 94
2019-04-01 08:00:00 0.8 0 Calma -- -- 0 921.6 0.6 92
2019-04-01 07:00:00 1.3 0 Calma 4 Sur 0 921.3 0.2 91
2019-04-01 06:00:00 2.8 2 Sur 9 Sur 0 921.1 0 89
2019-04-01 05:00:00 2.9 5 Este 11 Nordeste 0 921 -0.1 88
2019-04-01 04:00:00 4.3 10 Sur 13 Sur 0 921.1 -0.1 85
2019-04-01 03:00:00 5.6 8 Este 18 Este 0 921.1 0.3 81
2019-04-01 02:00:00 6.5 15 Este 18 Este 0 921.1 0.5 78
2019-04-01 01:00:00 6.4 8 Este 11 Este 0 921.2 1.3 73
2019-04-01 00:00:00 7.7 5 Sudeste 18 Este 0 920.8 1.5 68
2019-03-31 23:00:00 9.1 4 Sudeste 15 Sur 0 920.6 1.3 61
2019-03-31 22:00:00 11.6 2 Sudeste 8 Sudeste 0 919.9 0.9 50
2019-03-31 21:00:00 13.6 0 Calma 15 Este 0 919.3 0.3 45
2019-03-31 20:00:00 15.2 14 Este 26 Este 0 919.3 0.2 41
2019-03-31 19:00:00 16.1 15 Sur 28 Sur 0 919 -0.6 37
2019-03-31 18:00:00 17.5 16 Sur 32 Sur 0 919 -1.4 33
2019-03-31 17:00:00 19.4 17 Nordeste 30 Norte 0 919.1 -1.9 23
2019-03-31 16:00:00 18.5 15 Nordeste 30 Nordeste 0 919.6 -2.1 23
2019-03-31 15:00:00 17.8 19 Nordeste 33 Nordeste 0 920.4 -1.9 27
2019-03-31 14:00:00 17.3 19 Nordeste 33 Nordeste 0 921 -1.2 32
2019-03-31 13:00:00 16.9 14 Este 24 Este 0 921.7 -0.4 35
2019-03-31 12:00:00 12.5 5 Norte 11 Norte 0 922.3 0.5 47
2019-03-31 11:00:00 8.5 3 Norte 8 Nordeste 0 922.2 0.5 55
2019-03-31 10:00:00 5.3 0 Calma 13 Nordeste 0 922.1 0.5 66
2019-03-31 09:00:00 0.3 0 Calma 8 Norte 0 921.8 -0.2 86
2019-03-31 08:00:00 -0.5 8 Sudeste 11 Sudeste 0 921.7 -1 82
2019-03-31 07:00:00 0.8 0 Calma -- -- 0 921.6 -1.4 79
2019-03-31 06:00:00 1.5 0 Calma 5 Este 0 922 -1.4 77
2019-03-31 05:00:00 1.9 0 Calma 18 Este 0 922.7 -1.2 75
2019-03-31 03:00:00 2.4 0 Calma 15 Sur 0 923.4 -1.1 73
2019-03-31 01:00:00 4.6 0 Calma 5 Sur 0 923.9 -0.7 60
2019-03-31 00:00:00 6.2 5 Sudeste 9 Sudeste 0 924.2 0 55
2019-03-30 23:00:00 8.2 0 Calma 8 Sudeste 0 924.5 0.7 46
2019-03-30 22:00:00 9.1 10 Sudeste 26 Sur 0 924.6 0.9 43
2019-03-30 21:00:00 10.9 7 Nordeste 11 Nordeste 0 924.2 0.7 37
2019-03-30 20:00:00 14.3 7 Nordeste 13 Nordeste 0 923.8 0.1 27
2019-03-30 19:00:00 17.6 10 Este 24 Este 0 923.7 -0.5 21
2019-03-30 18:00:00 18.2 8 Este 28 Nordeste 0 923.5 -1.5 21
2019-03-30 17:00:00 17.6 5 Nordeste 26 Nordeste 0 923.7 -2.1 22
2019-03-30 16:00:00 19.1 14 Nordeste 28 Norte 0 924.2 -2.3 22
2019-03-30 15:00:00 17.4 12 Norte 22 Nordeste 0 925 -2.1 25
2019-03-30 14:00:00 18.6 2 Sudeste 30 Nordeste 0 925.8 -1.7 23
2019-03-30 13:00:00 17.5 5 Norte 18 Nordeste 0 926.5 -1.2 26
2019-03-30 12:00:00 16.9 5 Sudoeste 13 Oeste 0 927.1 -0.7 26
2019-03-30 11:00:00 16.1 4 Este 11 Sudeste 0 927.5 -0.1 29
2019-03-30 10:00:00 11.7 8 Sur 11 Sur 0 927.7 0 42
2019-03-30 09:00:00 6.1 0 Calma 8 Sudeste 0 927.8 0.1 56
2019-03-30 08:00:00 1.4 0 Calma -- -- 0 927.6 -0.1 68
2019-03-30 07:00:00 0 0 Calma -- -- 0 927.7 -0.3 72
2019-03-30 06:00:00 0.7 0 Calma -- -- 0 927.7 -0.4 68
2019-03-30 05:00:00 1.6 0 Calma 4 Este 0 927.7 -0.5 65
2019-03-30 04:00:00 1.8 0 Calma 8 Sudeste 0 928 -0.5 65
2019-03-30 03:00:00 2.9 0 Calma 5 Este 0 928.1 -0.3 62
2019-03-30 02:00:00 3.1 0 Calma 11 Este 0 928.2 -0.3 63
2019-03-30 01:00:00 5.8 7 Sudeste 13 Este 0 928.5 0.2 53
2019-03-30 00:00:00 7.5 6 Sudoeste 13 Oeste 0 928.4 0.4 48
2019-03-29 23:00:00 7.7 2 Oeste 28 Sur 0 928.5 0.8 51
2019-03-29 22:00:00 9.2 13 Sur 18 Sur 0 928.3 0.8 39
2019-03-29 21:00:00 10.7 14 Sudeste 24 Sudeste 0 928 0.7 32
2019-03-29 20:00:00 14.1 18 Sudeste 28 Sudeste 0 927.7 0.4 25
2019-03-29 19:00:00 17.5 14 Este 24 Este 0 927.5 -0.2 22
2019-03-29 18:00:00 17.5 10 Nordeste 26 Nordeste 0 927.3 -1.2 23
2019-03-29 17:00:00 17.8 7 Norte 24 Nordeste 0 927.3 -1.9 22
2019-03-29 16:00:00 19.6 8 Nordeste 24 Nordeste 0 927.7 -2.2 21
2019-03-29 15:00:00 19.2 5 Sudeste 24 Este 0 928.5 -1.8 21
2019-03-29 14:00:00 18.7 5 Sudoeste 17 Noroeste 0 929.2 -1.7 20
2019-03-29 13:00:00 17.2 4 Norte 17 Nordeste 0 929.9 -1.2 21
2019-03-29 12:00:00 16.4 6 Norte 13 Norte 0 930.3 -0.7 25
2019-03-29 11:00:00 13.3 0 Calma 8 Noroeste 0 930.9 0 33
2019-03-29 10:00:00 10.4 2 Este 8 Nordeste 0 931.1 0.4 38
2019-03-29 09:00:00 5.3 0 Calma 2 Sudeste 0 931 0.4 55
2019-03-29 08:00:00 0.1 0 Calma 5 Este 0 930.9 0.3 76
2019-03-29 07:00:00 -1 0 Calma 8 Este 0 930.7 0 77
2019-03-29 06:00:00 -0.6 6 Este 8 Este 0 930.6 -0.3 73
2019-03-29 05:00:00 -0.3 0 Calma 9 Sudeste 0 930.6 -0.6 73
2019-03-29 04:00:00 0.7 6 Sur 8 Sur 0 930.7 -0.6 73
2019-03-29 03:00:00 1.5 4 Sudeste 9 Sur 0 930.9 -0.5 68
2019-03-29 02:00:00 3.1 5 Sur 11 Sudeste 0 931.2 -0.2 58
2019-03-29 01:00:00 4.7 7 Sudeste 9 Sudeste 0 931.3 -0.2 52
2019-03-29 00:00:00 5.5 9 Este 17 Este 0 931.4 0.2 49
2019-03-28 23:00:00 7.7 7 Este 17 Sur 0 931.4 0.7 46
2019-03-28 22:00:00 8.1 4 Sur 15 Nordeste 0 931.5 1 43
2019-03-28 21:00:00 9.8 11 Nordeste 17 Nordeste 0 931.2 0.7 39
2019-03-28 20:00:00 12.8 11 Nordeste 18 Nordeste 0 930.7 0.1 32
2019-03-28 19:00:00 16.8 14 Nordeste 22 Nordeste 0 930.5 -0.7 23
2019-03-28 18:00:00 18.9 9 Nordeste 22 Este 0 930.5 -1.4 20
2019-03-28 17:00:00 18.9 6 Este 18 Nordeste 0 930.6 -2.2 19
2019-03-28 16:00:00 18.7 5 Este 21 Este 0 931.2 -2.2 17
2019-03-28 15:00:00 17.1 7 Nordeste 22 Este 0 931.9 -1.9 22
2019-03-28 14:00:00 16.3 10 Nordeste 24 Nordeste 0 932.8 -1.5 26
2019-03-28 13:00:00 14.8 13 Nordeste 22 Nordeste 0 933.4 -0.9 33
2019-03-28 12:00:00 12.5 11 Nordeste 24 Nordeste 0 933.8 -0.7 36
2019-03-28 11:00:00 10 11 Este 21 Este 0 934.3 0 39
2019-03-28 10:00:00 7 12 Nordeste 18 Nordeste 0 934.3 0.4 45
2019-03-28 09:00:00 4 0 Calma 9 Nordeste 0 934.5 0.9 51
2019-03-28 08:00:00 0.9 0 Calma 11 Este 0 934.3 1 55
2019-03-28 07:00:00 0.4 5 Este 11 Sudeste 0 933.9 0.8 53
2019-03-28 06:00:00 1.1 8 Sudeste 17 Este 0 933.6 0.4 50
2019-03-28 05:00:00 2.5 7 Este 21 Nordeste 0 933.3 0.1 44
2019-03-28 04:00:00 3.8 10 Este 26 Este 0 933.1 -0.2 41
2019-03-28 03:00:00 3.5 8 Nordeste 18 Nordeste 0 933.2 0.2 43
2019-03-28 02:00:00 4.1 13 Nordeste 24 Nordeste 0 933.2 0.8 42
2019-03-28 01:00:00 5 14 Nordeste 24 Este 0 933.3 1.4 40
2019-03-28 00:00:00 7.4 16 Nordeste 30 Nordeste 0 933 1.6 34
2019-03-27 23:00:00 9.6 26 Nordeste 41 Nordeste 0 932.4 1.7 30
2019-03-27 22:00:00 10.8 24 Nordeste 35 Nordeste 0 931.9 1.6 27
2019-03-27 21:00:00 11.2 18 Nordeste 30 Nordeste 0 931.4 1.3 27
2019-03-27 20:00:00 13.1 18 Nordeste 24 Nordeste 0 930.7 0.6 25
2019-03-27 19:00:00 17.1 15 Nordeste 30 Nordeste 0 930.3 -0.2 18
2019-03-27 18:00:00 18.4 16 Nordeste -- -- -- 930.1 -0.8 16
2019-03-27 17:00:00 18.6 21 Este 35 Nordeste 0 930.1 -1.2 16
2019-03-27 16:00:00 17.7 17 Nordeste 33 Nordeste 0 930.5 -1.2 17
2019-03-27 15:00:00 17.3 18 Nordeste 39 Nordeste 0 930.9 -1 20
2019-03-27 14:00:00 16.2 15 Nordeste 33 Nordeste 0 931.3 -0.8 24
2019-03-27 13:00:00 14.6 15 Nordeste 28 Nordeste 0 931.7 -0.3 26
2019-03-27 12:00:00 13.3 12 Nordeste 26 Este 0 931.9 -0.1 28
2019-03-27 11:00:00 10.9 11 Este 22 Este 0 932.1 0.6 37
2019-03-27 10:00:00 7.7 13 Este 21 Este 0 932 1.3 46
2019-03-27 09:00:00 4.3 12 Este 21 Este 0 932 1.9 59
2019-03-27 08:00:00 0.8 9 Sur 13 Este 0 931.5 1.7 67
2019-03-27 07:00:00 0.4 0 Calma 13 Oeste 0 930.7 1.3 64
2019-03-27 06:00:00 1 3 Sur 18 Este 0 930.1 0.7 60
2019-03-27 05:00:00 1 3 Nordeste 26 Nordeste 0 929.8 0.5 58
2019-03-27 04:00:00 2.8 14 Nordeste 30 Este 0 929.4 0 49
2019-03-27 03:00:00 4.1 23 Este 39 Este 0 929.4 0.4 43
2019-03-27 02:00:00 4.5 24 Este 42 Este 0 929.3 0.8 37
2019-03-27 01:00:00 5.1 21 Este 37 Este 0 929.4 1.4 35
2019-03-27 00:00:00 6.1 21 Este 46 Este 0 929 1.8 32
2019-03-26 23:00:00 8.2 33 Este 46 Este 0 928.5 2.2 28
2019-03-26 22:00:00 9.8 30 Este 50 Nordeste 0 928 2.2 27
2019-03-26 21:00:00 11.9 32 Nordeste 50 Nordeste 0 927.2 1.8 24
2019-03-26 20:00:00 13.4 26 Nordeste 41 Nordeste 0 926.3 0.8 24
2019-03-26 19:00:00 17.1 33 Nordeste 46 Nordeste 0 925.8 -0.2 21
2019-03-26 18:00:00 19.3 30 Nordeste 45 Nordeste 0 925.4 -1 17
2019-03-26 17:00:00 19.5 30 Este 48 Nordeste 0 925.5 -1.2 18
2019-03-26 16:00:00 19.1 27 Este 46 Este 0 926 -1.2 19
2019-03-26 15:00:00 17.9 29 Este 48 Nordeste 0 926.4 -1.4 23
2019-03-26 14:00:00 16.1 34 Nordeste 48 Este 0 926.7 -1.8 29
2019-03-26 13:00:00 14.2 32 Nordeste 46 Este 0 927.2 -1.4 33
2019-03-26 12:00:00 11.9 31 Este 46 Este 0 927.8 -1 37
2019-03-26 11:00:00 9.3 30 Este 41 Este 0 928.5 -0.4 47
2019-03-26 10:00:00 6.6 27 Este 39 Nordeste 0 928.6 -0.1 62
2019-03-26 09:00:00 3.5 15 Este 22 Este 0 928.8 0.2 73
2019-03-26 08:00:00 -0.8 6 Este 11 Este 0 928.9 0.1 85
2019-03-26 07:00:00 -2.4 4 Este 9 Este 0 928.7 -0.4 85
2019-03-26 06:00:00 -1 5 Este 13 Este 0 928.6 -0.9 80
2019-03-26 05:00:00 0.5 8 Este 22 Nordeste 0 928.8 -0.8 76
2019-03-26 04:00:00 1.7 17 Este 28 Este 0 929.1 -0.7 71
2019-03-26 03:00:00 2.3 20 Este 32 Nordeste 0 929.5 -0.4 68
2019-03-26 02:00:00 3.3 23 Nordeste 37 Nordeste 0 929.6 0 64
2019-03-26 01:00:00 3.8 18 Nordeste 28 Nordeste 0 929.8 0.8 64
2019-03-26 00:00:00 5.1 15 Nordeste 30 Nordeste 0 929.9 1.2 60
2019-03-25 23:00:00 6.8 9 Este 45 Nordeste 0 929.6 1.5 57
2019-03-25 22:00:00 8.3 31 Nordeste 48 Nordeste 0 929 1 51
2019-03-25 21:00:00 9.8 23 Nordeste 42 Nordeste 0 928.7 0.8 49
2019-03-25 20:00:00 11.2 25 Nordeste 41 Este 0 928.1 -0.1 43
2019-03-25 19:00:00 14.4 26 Nordeste 42 Nordeste 0 928 -0.4 32
2019-03-25 18:00:00 16.3 29 Nordeste 42 Nordeste 0 927.9 -1.1 30
2019-03-25 17:00:00 17.2 28 Nordeste 46 Nordeste 0 928.2 -1.6 25
2019-03-25 16:00:00 17.9 29 Nordeste 42 Este 0 928.4 -2.2 26
2019-03-25 15:00:00 17.8 27 Nordeste 39 Nordeste 0 929 -2.2 31
2019-03-25 14:00:00 17.5 23 Nordeste 33 Nordeste 0 929.8 -1.7 36
2019-03-25 13:00:00 16 26 Nordeste 39 Nordeste 0 930.6 -1.1 39
2019-03-25 12:00:00 14.1 21 Nordeste 35 Nordeste 0 931.2 -0.2 47
2019-03-25 11:00:00 12 18 Este 28 Este 0 931.5 0.5 50
2019-03-25 10:00:00 9.4 20 Este 26 Este 0 931.7 1 56
2019-03-25 09:00:00 6.6 0 Calma 8 Este 0 931.4 1.1 67
2019-03-25 08:00:00 2.8 5 Sudeste 9 Sudeste 0 931 0.8 80
2019-03-25 07:00:00 1.9 0 Calma 9 Sur 0 930.7 0.3 76
2019-03-25 06:00:00 4 0 Calma 8 Sudoeste 0 930.3 -0.3 72
2019-03-25 05:00:00 5.3 10 Nordeste 22 Nordeste 0 930.2 -0.5 68
2019-03-25 04:00:00 5.1 9 Nordeste 18 Nordeste 0 930.4 -0.4 67
2019-03-25 03:00:00 7.4 17 Nordeste 24 Nordeste 0 930.6 -0.2 62
2019-03-25 02:00:00 8.7 10 Norte 22 Este 0 930.7 -0.2 57
2019-03-25 01:00:00 10.8 17 Este 39 Este 0 930.8 0.4 50
2019-03-25 00:00:00 12.1 26 Nordeste 35 Este 0 930.8 0.9 45
2019-03-24 23:00:00 7.1 0 Calma 13 Norte 0 930.9 1.4 54
2019-03-24 22:00:00 9 5 Este 11 Este 0 930.4 1.2 45
2019-03-24 21:00:00 11.8 8 Este 15 Sudeste 0 929.9 0.8 37
2019-03-24 20:00:00 14.9 9 Nordeste 15 Este 0 929.5 0.4 29
2019-03-24 19:00:00 19.4 13 Este 32 Este 0 929.2 -0.5 20
2019-03-24 18:00:00 20.4 17 Este 33 Este 0 929.1 -1.1 20
2019-03-24 17:00:00 20.7 18 Este 41 Este 0 929.1 -1.9 22
2019-03-24 16:00:00 20.4 20 Este 39 Este 0 929.7 -1.9 26
2019-03-24 15:00:00 19.7 19 Este 39 Nordeste 0 930.2 -2.1 28
2019-03-24 14:00:00 18.8 21 Este 42 Este 0 931 -1.5 31
2019-03-24 13:00:00 17.7 23 Este 37 Este 0 931.6 -0.9 35
2019-03-24 12:00:00 17.1 19 Este 32 Nordeste 0 932.3 -0.1 38
2019-03-24 11:00:00 15.6 22 Este 30 Nordeste 0 932.5 0.5 41
2019-03-24 10:00:00 13.4 17 Este 28 Este 0 932.5 1 48
2019-03-24 09:00:00 9 16 Este 22 Este 0 932.4 1.3 60
2019-03-24 08:00:00 5.3 8 Este 22 Este 0 932 1.1 72
2019-03-24 07:00:00 5.7 13 Este 18 Este 0 931.5 0.5 69
2019-03-24 06:00:00 5.3 17 Este 21 Este 0 931.1 -0.2 71
2019-03-24 05:00:00 5.1 11 Este 13 Este 0 930.9 -0.4 71
2019-03-24 04:00:00 4.9 0 Calma 8 Este 0 931 -0.4 72
2019-03-24 03:00:00 5 4 Este 9 Este 0 931.3 0 70
2019-03-24 02:00:00 6.2 0 Calma 9 Este 0 931.3 0.1 67
2019-03-24 01:00:00 6.2 4 Sudeste 9 Sudeste 0 931.4 0.3 69
2019-03-24 00:00:00 6.7 0 Calma 4 Sudeste 0 931.3 0.6 62
2019-03-23 23:00:00 8 0 Calma 9 Este 0 931.2 1.1 56
2019-03-23 22:00:00 10.2 0 Calma 8 Este 0 931.1 1.1 50
2019-03-23 21:00:00 12.9 3 Este 8 Sur 0 930.7 1.1 40
2019-03-23 20:00:00 15.1 7 Sudeste 15 Sudeste 0 930.1 0.2 35
2019-03-23 19:00:00 17.8 12 Sudeste 32 Este 0 930 -0.2 28
2019-03-23 18:00:00 19 15 Este 30 Este 0 929.6 -1.2 26
2019-03-23 17:00:00 19.5 17 Este 33 Este 0 929.9 -1.7 25
2019-03-23 16:00:00 19.1 22 Sudeste 39 Este 0 930.2 -2.1 27
2019-03-23 15:00:00 19.6 19 Este 41 Este 0 930.8 -2.2 28
2019-03-23 14:00:00 19.1 24 Este 41 Este 0 931.6 -2 28
2019-03-23 13:00:00 18.9 19 Este 33 Sudeste 0 932.3 -1.6 26
2019-03-23 12:00:00 16.7 12 Este 22 Nordeste 0 933 -0.8 37
2019-03-23 11:00:00 14.3 10 Este 17 Este 0 933.6 0 43
2019-03-23 10:00:00 10.2 3 Este 9 Este 0 933.9 0.6 52
2019-03-23 09:00:00 4.2 0 Calma 2 Nordeste 0 933.8 0.6 70
2019-03-23 08:00:00 -0.3 0 Calma 5 Norte 0 933.6 0.4 83
2019-03-23 07:00:00 -0.3 3 Sur 5 Sudeste 0 933.3 -0.1 81
2019-03-23 06:00:00 -0.4 3 Sudeste 8 Nordeste 0 933.2 -0.7 77
2019-03-23 05:00:00 0.6 0 Calma -- -- 0 933.2 -0.7 75
2019-03-23 04:00:00 1.8 0 Calma 8 Nordeste 0 933.4 -0.4 68
2019-03-23 03:00:00 1.6 3 Nordeste 5 Este 0 933.9 0.1 72
2019-03-23 02:00:00 3.4 0 Calma 11 Sur 0 933.9 -0.1 63
2019-03-23 01:00:00 4.2 -- -- -- -- 0 933.8 0.1 59
2019-03-23 00:00:00 8.3 11 Este 24 Este 0 933.8 0.6 44
2019-03-22 23:00:00 6.6 10 Este 21 Nordeste 0 934 1.4 49
2019-03-22 22:00:00 8.2 3 Este 21 Nordeste 0 933.7 1.3 43
2019-03-22 21:00:00 8.6 9 Nordeste 15 Nordeste 0 933.2 1.1 42
2019-03-22 20:00:00 10.8 12 Nordeste 18 Nordeste 0 932.6 0.3 38
2019-03-22 19:00:00 14.8 16 Nordeste 26 Nordeste 0 932.4 -0.3 28
2019-03-22 18:00:00 16.3 15 Nordeste 28 Nordeste 0 932.1 -0.8 25
2019-03-22 17:00:00 16.9 15 Nordeste 33 Este 0 932.3 -1.3 25
2019-03-22 16:00:00 17.2 14 Este 35 Este 0 932.7 -1.4 25
2019-03-22 15:00:00 16.6 14 Este 28 Nordeste 0 932.9 -1.6 26
2019-03-22 14:00:00 15.8 14 Nordeste 37 Este 0 933.6 -1.1 25
2019-03-22 13:00:00 15.7 5 Este 28 Este 0 934.1 -0.6 27
2019-03-22 12:00:00 14.5 5 Este 22 Sudeste 0 934.5 -0.2 29
2019-03-22 11:00:00 11.8 3 Este 9 Este 0 934.7 0.2 38
2019-03-22 10:00:00 6.6 3 Este 8 Sudeste 0 934.7 0.8 55
2019-03-22 09:00:00 2.4 0 Calma 5 Este 0 934.7 1 69
2019-03-22 08:00:00 -2.3 0 Calma 5 Este 0 934.5 1 82
2019-03-22 07:00:00 -3.1 4 Este 8 Sudeste 0 933.9 0.3 83
2019-03-22 06:00:00 -2.7 0 Calma 8 Este 0 933.7 0.1 84
2019-03-22 05:00:00 -2.2 0 Calma 5 Este 0 933.5 0.1 83
2019-03-22 04:00:00 -2 2 Este 5 Este 0 933.6 0.1 81
2019-03-22 03:00:00 -0.3 0 Calma 11 Sur 0 933.6 0.1 80
2019-03-22 02:00:00 -0.3 0 Calma 5 Norte 0 933.4 -0.1 79
2019-03-22 01:00:00 1.1 3 Sur 9 Sur 0 933.5 0.4 75
2019-03-22 00:00:00 2.3 5 Norte 9 Noroeste 0 933.5 0.8 67
2019-03-21 23:00:00 3 11 Sur 15 Sur 0 933.5 1.3 65
2019-03-21 22:00:00 5.9 0 Calma 11 Nordeste 0 933.1 1.2 52
2019-03-21 21:00:00 6.6 10 Nordeste 13 Nordeste 0 932.7 1 50
2019-03-21 20:00:00 9.6 8 Norte 13 Norte 0 932.2 0.3 44
2019-03-21 19:00:00 12.7 11 Norte 17 Norte 0 931.9 -0.5 33
2019-03-21 18:00:00 14 10 Norte 22 Norte 0 931.7 -1.1 30
2019-03-21 17:00:00 14.5 12 Norte 24 Norte 0 931.9 -1.7 32
2019-03-21 16:00:00 15 8 Nordeste 22 Norte 0 932.4 -- 27
2019-03-21 15:00:00 14.4 7 Nordeste 22 Nordeste 0 932.8 -1.9 30
2019-03-21 14:00:00 13.7 4 Sudeste 17 Nordeste 0 933.6 -1.5 33
2019-03-21 13:00:00 -- -- -- -- -- -- -- -- --
2019-03-21 12:00:00 10.1 9 Nordeste 17 Este 0 934.7 -0.6 47
2019-03-21 11:00:00 7.5 6 Este 15 Este 0 935.1 -0.1 54
2019-03-21 10:00:00 4.4 10 Este 15 Este 0 935.2 0.3 62
2019-03-21 09:00:00 1.9 0 Calma 5 Sudeste 0 935.3 0.8 75
2019-03-21 08:00:00 -2.7 0 Calma -- -- 0 935.2 1.2 84
2019-03-21 07:00:00 -3.2 3 Sur 13 Sudoeste 0 934.9 0.9 86
2019-03-21 06:00:00 -2.7 6 Sudoeste 8 Sudoeste 0 934.5 0.3 83
2019-03-21 05:00:00 -2.5 0 Calma -- -- 0 934 -0.4 80
2019-03-21 04:00:00 -1 0 Calma 5 Sudoeste 0 934 -0.8 74
2019-03-21 03:00:00 0.1 2 Noroeste 15 Nordeste 0 934.2 -0.6 72
2019-03-21 02:00:00 0.5 9 Nordeste 13 Este 0 934.4 -0.3 70
2019-03-21 01:00:00 2 3 Sudeste 13 Este 0 934.8 0.4 65
2019-03-21 00:00:00 4.2 14 Este 30 Este 0 934.8 0.7 56